sensor_id;sensor_type;location;lat;lon;timestamp;P1;durP1;ratioP1;P2;durP2;ratioP2
75009;SDS011;63564;46.840;18.336;2023-07-31T00:02:18;10.10;;;5.90;;
75009;SDS011;63564;46.840;18.336;2023-07-31T00:05:19;9.57;;;5.93;;
75009;SDS011;63564;46.840;18.336;2023-07-31T00:08:19;11.10;;;6.10;;
75009;SDS011;63564;46.840;18.336;2023-07-31T00:11:19;8.40;;;5.20;;
75009;SDS011;63564;46.840;18.336;2023-07-31T00:14:20;9.13;;;5.03;;
75009;SDS011;63564;46.840;18.336;2023-07-31T00:17:20;8.13;;;4.20;;
75009;SDS011;63564;46.840;18.336;2023-07-31T00:20:21;9.10;;;4.23;;
75009;SDS011;63564;46.840;18.336;2023-07-31T00:23:21;8.07;;;4.00;;
75009;SDS011;63564;46.840;18.336;2023-07-31T00:26:21;7.77;;;4.07;;
75009;SDS011;63564;46.840;18.336;2023-07-31T00:29:22;8.63;;;4.20;;
75009;SDS011;63564;46.840;18.336;2023-07-31T00:32:22;9.05;;;4.28;;
75009;SDS011;63564;46.840;18.336;2023-07-31T00:35:23;8.47;;;4.13;;
75009;SDS011;63564;46.840;18.336;2023-07-31T00:38:23;8.83;;;4.30;;
75009;SDS011;63564;46.840;18.336;2023-07-31T00:41:24;9.00;;;5.00;;
75009;SDS011;63564;46.840;18.336;2023-07-31T00:44:24;7.87;;;5.07;;
75009;SDS011;63564;46.840;18.336;2023-07-31T00:47:24;9.03;;;4.93;;
75009;SDS011;63564;46.840;18.336;2023-07-31T00:50:25;8.48;;;5.00;;
75009;SDS011;63564;46.840;18.336;2023-07-31T00:53:27;9.53;;;4.77;;
75009;SDS011;63564;46.840;18.336;2023-07-31T00:56:27;7.07;;;3.90;;
75009;SDS011;63564;46.840;18.336;2023-07-31T00:59:28;7.22;;;3.72;;
75009;SDS011;63564;46.840;18.336;2023-07-31T01:02:29;9.47;;;4.00;;
75009;SDS011;63564;46.840;18.336;2023-07-31T01:05:33;6.63;;;3.50;;
75009;SDS011;63564;46.840;18.336;2023-07-31T01:12:01;6.97;;;3.45;;
75009;SDS011;63564;46.840;18.336;2023-07-31T01:15:09;7.28;;;3.50;;
75009;SDS011;63564;46.840;18.336;2023-07-31T01:18:14;6.77;;;3.47;;
75009;SDS011;63564;46.840;18.336;2023-07-31T01:28:14;6.50;;;3.47;;
75009;SDS011;63564;46.840;18.336;2023-07-31T01:31:21;6.63;;;3.45;;
75009;SDS011;63564;46.840;18.336;2023-07-31T01:34:23;6.43;;;3.00;;
75009;SDS011;63564;46.840;18.336;2023-07-31T01:37:29;6.70;;;2.93;;
75009;SDS011;63564;46.840;18.336;2023-07-31T01:40:30;6.63;;;2.90;;
75009;SDS011;63564;46.840;18.336;2023-07-31T01:43:30;7.17;;;2.70;;
75009;SDS011;63564;46.840;18.336;2023-07-31T01:46:31;7.43;;;3.00;;
75009;SDS011;63564;46.840;18.336;2023-07-31T01:49:31;6.13;;;2.50;;
75009;SDS011;63564;46.840;18.336;2023-07-31T01:52:31;5.77;;;2.80;;
75009;SDS011;63564;46.840;18.336;2023-07-31T01:55:32;5.83;;;2.70;;
75009;SDS011;63564;46.840;18.336;2023-07-31T01:58:32;6.10;;;3.10;;
75009;SDS011;63564;46.840;18.336;2023-07-31T02:01:32;5.90;;;2.80;;
75009;SDS011;63564;46.840;18.336;2023-07-31T02:04:33;5.90;;;2.97;;
75009;SDS011;63564;46.840;18.336;2023-07-31T02:07:34;5.68;;;2.67;;
75009;SDS011;63564;46.840;18.336;2023-07-31T02:10:34;6.43;;;2.90;;
75009;SDS011;63564;46.840;18.336;2023-07-31T02:13:35;6.53;;;2.90;;
75009;SDS011;63564;46.840;18.336;2023-07-31T02:16:35;5.80;;;3.10;;
75009;SDS011;63564;46.840;18.336;2023-07-31T02:19:35;6.77;;;3.33;;
75009;SDS011;63564;46.840;18.336;2023-07-31T02:22:36;6.57;;;3.50;;
75009;SDS011;63564;46.840;18.336;2023-07-31T02:25:36;6.07;;;3.33;;
75009;SDS011;63564;46.840;18.336;2023-07-31T02:28:36;7.03;;;3.60;;
75009;SDS011;63564;46.840;18.336;2023-07-31T02:31:37;6.75;;;3.38;;
75009;SDS011;63564;46.840;18.336;2023-07-31T02:34:37;9.02;;;3.88;;
75009;SDS011;63564;46.840;18.336;2023-07-31T02:37:38;7.03;;;3.80;;
75009;SDS011;63564;46.840;18.336;2023-07-31T02:40:39;6.97;;;3.70;;
75009;SDS011;63564;46.840;18.336;2023-07-31T02:43:41;6.80;;;3.88;;
75009;SDS011;63564;46.840;18.336;2023-07-31T02:46:41;7.33;;;3.80;;
75009;SDS011;63564;46.840;18.336;2023-07-31T02:49:42;6.60;;;3.90;;
75009;SDS011;63564;46.840;18.336;2023-07-31T02:52:42;6.60;;;3.50;;
75009;SDS011;63564;46.840;18.336;2023-07-31T02:55:42;7.60;;;3.80;;
75009;SDS011;63564;46.840;18.336;2023-07-31T02:58:43;6.87;;;3.97;;
75009;SDS011;63564;46.840;18.336;2023-07-31T03:01:43;7.10;;;4.00;;
75009;SDS011;63564;46.840;18.336;2023-07-31T03:04:44;7.20;;;4.37;;
75009;SDS011;63564;46.840;18.336;2023-07-31T03:07:44;9.30;;;3.90;;
75009;SDS011;63564;46.840;18.336;2023-07-31T03:10:44;8.10;;;3.90;;
75009;SDS011;63564;46.840;18.336;2023-07-31T03:13:45;6.38;;;3.40;;
75009;SDS011;63564;46.840;18.336;2023-07-31T03:16:45;7.35;;;3.75;;
75009;SDS011;63564;46.840;18.336;2023-07-31T03:19:46;7.53;;;3.80;;
75009;SDS011;63564;46.840;18.336;2023-07-31T03:22:46;6.70;;;3.40;;
75009;SDS011;63564;46.840;18.336;2023-07-31T03:25:56;9.37;;;3.80;;
75009;SDS011;63564;46.840;18.336;2023-07-31T03:28:57;8.52;;;3.90;;
75009;SDS011;63564;46.840;18.336;2023-07-31T03:31:57;6.93;;;3.67;;
75009;SDS011;63564;46.840;18.336;2023-07-31T03:34:59;6.63;;;3.38;;
75009;SDS011;63564;46.840;18.336;2023-07-31T03:38:00;6.95;;;3.85;;
75009;SDS011;63564;46.840;18.336;2023-07-31T03:41:00;7.30;;;3.80;;
75009;SDS011;63564;46.840;18.336;2023-07-31T03:44:02;7.78;;;3.55;;
75009;SDS011;63564;46.840;18.336;2023-07-31T03:47:02;9.40;;;4.03;;
75009;SDS011;63564;46.840;18.336;2023-07-31T03:50:03;7.53;;;3.90;;
75009;SDS011;63564;46.840;18.336;2023-07-31T03:53:04;8.57;;;3.92;;
75009;SDS011;63564;46.840;18.336;2023-07-31T03:56:04;6.33;;;3.57;;
75009;SDS011;63564;46.840;18.336;2023-07-31T03:59:04;6.87;;;3.40;;
75009;SDS011;63564;46.840;18.336;2023-07-31T04:02:05;6.50;;;3.67;;
75009;SDS011;63564;46.840;18.336;2023-07-31T04:05:05;6.88;;;3.55;;
75009;SDS011;63564;46.840;18.336;2023-07-31T04:08:06;7.17;;;3.40;;
75009;SDS011;63564;46.840;18.336;2023-07-31T04:11:07;5.88;;;3.10;;
75009;SDS011;63564;46.840;18.336;2023-07-31T04:14:07;6.45;;;3.53;;
75009;SDS011;63564;46.840;18.336;2023-07-31T04:17:07;6.77;;;3.20;;
75009;SDS011;63564;46.840;18.336;2023-07-31T04:20:08;6.23;;;3.50;;
75009;SDS011;63564;46.840;18.336;2023-07-31T04:23:09;6.78;;;3.25;;
75009;SDS011;63564;46.840;18.336;2023-07-31T04:26:09;7.90;;;3.27;;
75009;SDS011;63564;46.840;18.336;2023-07-31T04:29:10;6.63;;;3.80;;
75009;SDS011;63564;46.840;18.336;2023-07-31T04:32:10;7.00;;;3.40;;
75009;SDS011;63564;46.840;18.336;2023-07-31T04:35:10;6.30;;;3.27;;
75009;SDS011;63564;46.840;18.336;2023-07-31T04:38:11;5.87;;;3.30;;
75009;SDS011;63564;46.840;18.336;2023-07-31T04:41:11;6.80;;;3.30;;
75009;SDS011;63564;46.840;18.336;2023-07-31T04:44:11;7.83;;;3.33;;
75009;SDS011;63564;46.840;18.336;2023-07-31T04:47:12;6.63;;;3.40;;
75009;SDS011;63564;46.840;18.336;2023-07-31T04:50:12;7.15;;;3.92;;
75009;SDS011;63564;46.840;18.336;2023-07-31T04:53:13;6.80;;;3.40;;
75009;SDS011;63564;46.840;18.336;2023-07-31T04:56:13;6.20;;;3.27;;
75009;SDS011;63564;46.840;18.336;2023-07-31T04:59:15;8.32;;;3.40;;
75009;SDS011;63564;46.840;18.336;2023-07-31T05:02:15;7.30;;;2.90;;
75009;SDS011;63564;46.840;18.336;2023-07-31T05:05:16;6.80;;;3.37;;
75009;SDS011;63564;46.840;18.336;2023-07-31T05:08:16;6.20;;;3.40;;
75009;SDS011;63564;46.840;18.336;2023-07-31T05:11:17;6.00;;;3.50;;
75009;SDS011;63564;46.840;18.336;2023-07-31T05:14:18;6.43;;;3.40;;
75009;SDS011;63564;46.840;18.336;2023-07-31T05:17:18;6.20;;;2.90;;
75009;SDS011;63564;46.840;18.336;2023-07-31T05:20:18;6.35;;;3.20;;
75009;SDS011;63564;46.840;18.336;2023-07-31T05:23:19;7.28;;;3.30;;
75009;SDS011;63564;46.840;18.336;2023-07-31T05:26:19;5.67;;;2.60;;
75009;SDS011;63564;46.840;18.336;2023-07-31T05:29:20;6.47;;;2.80;;
75009;SDS011;63564;46.840;18.336;2023-07-31T05:32:20;5.87;;;2.73;;
75009;SDS011;63564;46.840;18.336;2023-07-31T05:35:20;5.90;;;2.57;;
75009;SDS011;63564;46.840;18.336;2023-07-31T05:38:21;5.73;;;2.70;;
75009;SDS011;63564;46.840;18.336;2023-07-31T05:41:21;7.00;;;2.72;;
75009;SDS011;63564;46.840;18.336;2023-07-31T05:44:23;7.00;;;2.83;;
75009;SDS011;63564;46.840;18.336;2023-07-31T05:47:23;6.57;;;2.60;;
75009;SDS011;63564;46.840;18.336;2023-07-31T05:50:24;5.93;;;2.40;;
75009;SDS011;63564;46.840;18.336;2023-07-31T05:53:24;5.25;;;2.30;;
75009;SDS011;63564;46.840;18.336;2023-07-31T05:56:24;5.97;;;2.37;;
75009;SDS011;63564;46.840;18.336;2023-07-31T05:59:27;6.20;;;2.50;;
75009;SDS011;63564;46.840;18.336;2023-07-31T06:02:27;5.43;;;2.30;;
75009;SDS011;63564;46.840;18.336;2023-07-31T06:05:28;6.03;;;2.30;;
75009;SDS011;63564;46.840;18.336;2023-07-31T06:08:30;4.93;;;2.17;;
75009;SDS011;63564;46.840;18.336;2023-07-31T06:11:30;5.47;;;2.20;;
75009;SDS011;63564;46.840;18.336;2023-07-31T06:14:31;4.33;;;1.97;;
75009;SDS011;63564;46.840;18.336;2023-07-31T06:17:31;5.57;;;2.07;;
75009;SDS011;63564;46.840;18.336;2023-07-31T06:20:31;6.27;;;1.90;;
75009;SDS011;63564;46.840;18.336;2023-07-31T06:23:32;4.15;;;1.85;;
75009;SDS011;63564;46.840;18.336;2023-07-31T06:26:33;4.40;;;1.90;;
75009;SDS011;63564;46.840;18.336;2023-07-31T06:29:33;4.97;;;2.20;;
75009;SDS011;63564;46.840;18.336;2023-07-31T06:32:33;6.90;;;2.70;;
75009;SDS011;63564;46.840;18.336;2023-07-31T06:35:34;6.20;;;2.63;;
75009;SDS011;63564;46.840;18.336;2023-07-31T06:38:34;6.37;;;2.70;;
75009;SDS011;63564;46.840;18.336;2023-07-31T06:41:34;4.63;;;1.83;;
75009;SDS011;63564;46.840;18.336;2023-07-31T06:44:35;6.22;;;2.30;;
75009;SDS011;63564;46.840;18.336;2023-07-31T06:47:35;4.93;;;2.10;;
75009;SDS011;63564;46.840;18.336;2023-07-31T06:50:36;5.40;;;2.00;;
75009;SDS011;63564;46.840;18.336;2023-07-31T06:53:37;6.45;;;1.90;;
75009;SDS011;63564;46.840;18.336;2023-07-31T06:56:37;5.83;;;1.90;;
75009;SDS011;63564;46.840;18.336;2023-07-31T06:59:37;5.30;;;2.10;;
75009;SDS011;63564;46.840;18.336;2023-07-31T07:02:38;5.00;;;2.17;;
75009;SDS011;63564;46.840;18.336;2023-07-31T07:05:38;7.40;;;2.22;;
75009;SDS011;63564;46.840;18.336;2023-07-31T07:08:39;5.77;;;2.10;;
75009;SDS011;63564;46.840;18.336;2023-07-31T07:11:39;5.97;;;1.80;;
75009;SDS011;63564;46.840;18.336;2023-07-31T07:14:40;4.90;;;1.93;;
75009;SDS011;63564;46.840;18.336;2023-07-31T07:17:40;4.90;;;2.07;;
75009;SDS011;63564;46.840;18.336;2023-07-31T07:20:45;4.80;;;1.92;;
75009;SDS011;63564;46.840;18.336;2023-07-31T07:23:47;6.00;;;2.00;;
75009;SDS011;63564;46.840;18.336;2023-07-31T07:26:48;4.72;;;1.80;;
75009;SDS011;63564;46.840;18.336;2023-07-31T07:29:49;6.73;;;1.97;;
75009;SDS011;63564;46.840;18.336;2023-07-31T07:32:51;5.63;;;1.80;;
75009;SDS011;63564;46.840;18.336;2023-07-31T07:35:52;3.77;;;1.77;;
75009;SDS011;63564;46.840;18.336;2023-07-31T07:38:52;4.67;;;2.03;;
75009;SDS011;63564;46.840;18.336;2023-07-31T07:41:52;3.77;;;1.90;;
75009;SDS011;63564;46.840;18.336;2023-07-31T07:44:54;5.80;;;1.90;;
75009;SDS011;63564;46.840;18.336;2023-07-31T07:47:54;4.13;;;1.90;;
75009;SDS011;63564;46.840;18.336;2023-07-31T07:50:55;14.90;;;2.50;;
75009;SDS011;63564;46.840;18.336;2023-07-31T07:53:55;6.85;;;2.47;;
75009;SDS011;63564;46.840;18.336;2023-07-31T07:56:56;8.37;;;2.13;;
75009;SDS011;63564;46.840;18.336;2023-07-31T07:59:56;6.03;;;1.80;;
75009;SDS011;63564;46.840;18.336;2023-07-31T08:02:56;5.03;;;1.80;;
75009;SDS011;63564;46.840;18.336;2023-07-31T08:05:58;5.18;;;1.90;;
75009;SDS011;63564;46.840;18.336;2023-07-31T08:09:00;8.05;;;2.00;;
75009;SDS011;63564;46.840;18.336;2023-07-31T08:12:05;5.37;;;1.80;;
75009;SDS011;63564;46.840;18.336;2023-07-31T08:15:06;3.75;;;1.80;;
75009;SDS011;63564;46.840;18.336;2023-07-31T08:18:07;4.63;;;1.70;;
75009;SDS011;63564;46.840;18.336;2023-07-31T08:21:07;5.43;;;1.63;;
75009;SDS011;63564;46.840;18.336;2023-07-31T08:24:08;5.63;;;1.83;;
75009;SDS011;63564;46.840;18.336;2023-07-31T08:27:08;4.13;;;1.50;;
75009;SDS011;63564;46.840;18.336;2023-07-31T08:30:09;5.85;;;1.90;;
75009;SDS011;63564;46.840;18.336;2023-07-31T08:33:10;4.57;;;1.77;;
75009;SDS011;63564;46.840;18.336;2023-07-31T08:36:10;4.13;;;1.80;;
75009;SDS011;63564;46.840;18.336;2023-07-31T08:39:11;4.57;;;1.93;;
75009;SDS011;63564;46.840;18.336;2023-07-31T08:42:11;3.83;;;1.80;;
75009;SDS011;63564;46.840;18.336;2023-07-31T08:45:15;4.43;;;1.90;;
75009;SDS011;63564;46.840;18.336;2023-07-31T08:48:17;3.95;;;1.98;;
75009;SDS011;63564;46.840;18.336;2023-07-31T08:51:19;5.50;;;1.83;;
75009;SDS011;63564;46.840;18.336;2023-07-31T08:54:20;4.80;;;1.80;;
75009;SDS011;63564;46.840;18.336;2023-07-31T08:57:20;5.07;;;1.90;;
75009;SDS011;63564;46.840;18.336;2023-07-31T09:00:21;4.13;;;1.90;;
75009;SDS011;63564;46.840;18.336;2023-07-31T09:03:24;4.82;;;1.90;;
75009;SDS011;63564;46.840;18.336;2023-07-31T09:06:25;4.70;;;1.87;;
75009;SDS011;63564;46.840;18.336;2023-07-31T09:09:30;5.45;;;2.05;;
75009;SDS011;63564;46.840;18.336;2023-07-31T09:12:31;4.72;;;2.03;;
75009;SDS011;63564;46.840;18.336;2023-07-31T09:15:31;5.33;;;1.70;;
75009;SDS011;63564;46.840;18.336;2023-07-31T09:18:36;4.85;;;2.00;;
75009;SDS011;63564;46.840;18.336;2023-07-31T09:21:54;4.70;;;1.80;;
75009;SDS011;63564;46.840;18.336;2023-07-31T09:24:54;5.37;;;1.90;;
75009;SDS011;63564;46.840;18.336;2023-07-31T09:27:58;4.77;;;1.70;;
75009;SDS011;63564;46.840;18.336;2023-07-31T09:31:00;4.10;;;1.88;;
75009;SDS011;63564;46.840;18.336;2023-07-31T09:34:00;5.37;;;1.90;;
75009;SDS011;63564;46.840;18.336;2023-07-31T09:37:01;4.73;;;1.93;;
75009;SDS011;63564;46.840;18.336;2023-07-31T09:40:02;7.95;;;2.17;;
75009;SDS011;63564;46.840;18.336;2023-07-31T09:43:03;5.13;;;1.97;;
75009;SDS011;63564;46.840;18.336;2023-07-31T09:46:05;6.80;;;1.80;;
75009;SDS011;63564;46.840;18.336;2023-07-31T09:49:13;6.97;;;1.88;;
75009;SDS011;63564;46.840;18.336;2023-07-31T09:52:14;4.25;;;1.90;;
75009;SDS011;63564;46.840;18.336;2023-07-31T09:55:15;5.73;;;2.00;;
75009;SDS011;63564;46.840;18.336;2023-07-31T09:58:15;5.07;;;1.73;;
75009;SDS011;63564;46.840;18.336;2023-07-31T10:01:16;4.25;;;1.88;;
75009;SDS011;63564;46.840;18.336;2023-07-31T10:04:16;4.57;;;2.00;;
75009;SDS011;63564;46.840;18.336;2023-07-31T10:07:20;5.03;;;1.97;;
75009;SDS011;63564;46.840;18.336;2023-07-31T10:10:24;5.63;;;1.70;;
75009;SDS011;63564;46.840;18.336;2023-07-31T10:13:25;5.03;;;1.67;;
75009;SDS011;63564;46.840;18.336;2023-07-31T10:16:28;4.57;;;1.90;;
75009;SDS011;63564;46.840;18.336;2023-07-31T10:19:29;5.45;;;2.05;;
75009;SDS011;63564;46.840;18.336;2023-07-31T10:22:31;5.33;;;2.00;;
75009;SDS011;63564;46.840;18.336;2023-07-31T10:25:32;4.90;;;1.83;;
75009;SDS011;63564;46.840;18.336;2023-07-31T10:28:33;3.97;;;1.60;;
75009;SDS011;63564;46.840;18.336;2023-07-31T10:31:36;5.82;;;2.00;;
75009;SDS011;63564;46.840;18.336;2023-07-31T10:34:36;3.87;;;1.80;;
75009;SDS011;63564;46.840;18.336;2023-07-31T10:37:40;6.50;;;2.00;;
75009;SDS011;63564;46.840;18.336;2023-07-31T10:40:44;5.65;;;2.00;;
75009;SDS011;63564;46.840;18.336;2023-07-31T10:43:46;4.37;;;1.83;;
75009;SDS011;63564;46.840;18.336;2023-07-31T10:46:47;5.70;;;1.90;;
75009;SDS011;63564;46.840;18.336;2023-07-31T10:49:48;5.63;;;2.00;;
75009;SDS011;63564;46.840;18.336;2023-07-31T10:55:50;5.90;;;1.90;;
75009;SDS011;63564;46.840;18.336;2023-07-31T10:59:02;6.22;;;2.03;;
75009;SDS011;63564;46.840;18.336;2023-07-31T11:02:03;6.05;;;2.42;;
75009;SDS011;63564;46.840;18.336;2023-07-31T11:05:08;4.37;;;1.90;;
75009;SDS011;63564;46.840;18.336;2023-07-31T11:08:13;4.82;;;2.00;;
75009;SDS011;63564;46.840;18.336;2023-07-31T11:11:24;6.73;;;2.10;;
75009;SDS011;63564;46.840;18.336;2023-07-31T11:14:24;4.13;;;1.83;;
75009;SDS011;63564;46.840;18.336;2023-07-31T11:17:25;5.60;;;1.73;;
75009;SDS011;63564;46.840;18.336;2023-07-31T11:20:26;4.95;;;2.00;;
75009;SDS011;63564;46.840;18.336;2023-07-31T11:23:27;5.07;;;1.90;;
75009;SDS011;63564;46.840;18.336;2023-07-31T11:26:27;4.07;;;2.00;;
75009;SDS011;63564;46.840;18.336;2023-07-31T11:29:28;5.37;;;1.70;;
75009;SDS011;63564;46.840;18.336;2023-07-31T11:32:29;4.65;;;1.88;;
75009;SDS011;63564;46.840;18.336;2023-07-31T11:35:30;4.82;;;2.30;;
75009;SDS011;63564;46.840;18.336;2023-07-31T11:38:34;5.27;;;2.20;;
75009;SDS011;63564;46.840;18.336;2023-07-31T11:41:35;5.25;;;2.22;;
75009;SDS011;63564;46.840;18.336;2023-07-31T11:44:39;4.27;;;2.00;;
75009;SDS011;63564;46.840;18.336;2023-07-31T11:47:41;4.83;;;1.90;;
75009;SDS011;63564;46.840;18.336;2023-07-31T11:50:41;4.63;;;1.80;;
75009;SDS011;63564;46.840;18.336;2023-07-31T11:56:53;7.05;;;1.98;;
75009;SDS011;63564;46.840;18.336;2023-07-31T11:59:54;4.43;;;2.17;;
75009;SDS011;63564;46.840;18.336;2023-07-31T12:02:55;6.30;;;2.10;;
75009;SDS011;63564;46.840;18.336;2023-07-31T12:05:55;5.37;;;2.10;;
75009;SDS011;63564;46.840;18.336;2023-07-31T12:09:00;4.40;;;2.03;;
75009;SDS011;63564;46.840;18.336;2023-07-31T12:12:02;5.27;;;1.90;;
75009;SDS011;63564;46.840;18.336;2023-07-31T12:15:15;5.35;;;1.90;;
75009;SDS011;63564;46.840;18.336;2023-07-31T12:18:18;6.28;;;2.10;;
75009;SDS011;63564;46.840;18.336;2023-07-31T12:21:20;5.70;;;1.90;;
75009;SDS011;63564;46.840;18.336;2023-07-31T12:24:21;5.00;;;2.00;;
75009;SDS011;63564;46.840;18.336;2023-07-31T12:27:21;5.20;;;1.83;;
75009;SDS011;63564;46.840;18.336;2023-07-31T12:30:28;5.40;;;2.10;;
75009;SDS011;63564;46.840;18.336;2023-07-31T12:33:33;5.72;;;1.80;;
75009;SDS011;63564;46.840;18.336;2023-07-31T12:36:36;5.30;;;1.90;;
75009;SDS011;63564;46.840;18.336;2023-07-31T12:39:36;6.83;;;2.20;;
75009;SDS011;63564;46.840;18.336;2023-07-31T12:42:36;4.83;;;1.80;;
75009;SDS011;63564;46.840;18.336;2023-07-31T12:45:37;4.07;;;1.97;;
75009;SDS011;63564;46.840;18.336;2023-07-31T12:48:38;5.68;;;2.05;;
75009;SDS011;63564;46.840;18.336;2023-07-31T12:51:39;5.18;;;2.25;;
75009;SDS011;63564;46.840;18.336;2023-07-31T12:54:39;6.33;;;1.97;;
75009;SDS011;63564;46.840;18.336;2023-07-31T12:57:39;4.93;;;2.00;;
75009;SDS011;63564;46.840;18.336;2023-07-31T13:00:40;4.00;;;1.90;;
75009;SDS011;63564;46.840;18.336;2023-07-31T13:03:41;4.80;;;1.70;;
75009;SDS011;63564;46.840;18.336;2023-07-31T13:06:41;6.70;;;1.70;;
75009;SDS011;63564;46.840;18.336;2023-07-31T13:09:42;4.57;;;1.70;;
75009;SDS011;63564;46.840;18.336;2023-07-31T13:12:42;5.47;;;2.13;;
75009;SDS011;63564;46.840;18.336;2023-07-31T13:15:43;4.55;;;2.00;;
75009;SDS011;63564;46.840;18.336;2023-07-31T13:18:44;4.23;;;1.80;;
75009;SDS011;63564;46.840;18.336;2023-07-31T13:21:44;5.60;;;2.00;;
75009;SDS011;63564;46.840;18.336;2023-07-31T13:24:44;5.55;;;2.00;;
75009;SDS011;63564;46.840;18.336;2023-07-31T13:27:45;4.93;;;1.80;;
75009;SDS011;63564;46.840;18.336;2023-07-31T13:30:45;5.00;;;1.90;;
75009;SDS011;63564;46.840;18.336;2023-07-31T13:33:46;5.10;;;1.80;;
75009;SDS011;63564;46.840;18.336;2023-07-31T13:36:46;5.57;;;2.40;;
75009;SDS011;63564;46.840;18.336;2023-07-31T13:39:46;4.83;;;2.33;;
75009;SDS011;63564;46.840;18.336;2023-07-31T13:42:47;6.75;;;2.20;;
75009;SDS011;63564;46.840;18.336;2023-07-31T13:45:48;4.30;;;1.90;;
75009;SDS011;63564;46.840;18.336;2023-07-31T13:48:48;5.33;;;2.30;;
75009;SDS011;63564;46.840;18.336;2023-07-31T13:51:49;4.70;;;2.05;;
75009;SDS011;63564;46.840;18.336;2023-07-31T13:54:49;6.47;;;1.97;;
75009;SDS011;63564;46.840;18.336;2023-07-31T13:57:49;7.13;;;1.80;;
75009;SDS011;63564;46.840;18.336;2023-07-31T14:00:50;4.90;;;1.80;;
75009;SDS011;63564;46.840;18.336;2023-07-31T14:03:50;5.53;;;2.00;;
75009;SDS011;63564;46.840;18.336;2023-07-31T14:06:51;4.30;;;2.13;;
75009;SDS011;63564;46.840;18.336;2023-07-31T14:09:51;6.47;;;2.30;;
75009;SDS011;63564;46.840;18.336;2023-07-31T14:12:51;5.33;;;2.40;;
75009;SDS011;63564;46.840;18.336;2023-07-31T14:15:52;5.50;;;2.03;;
75009;SDS011;63564;46.840;18.336;2023-07-31T14:18:53;5.00;;;1.97;;
75009;SDS011;63564;46.840;18.336;2023-07-31T14:21:53;5.53;;;1.90;;
75009;SDS011;63564;46.840;18.336;2023-07-31T14:24:54;4.80;;;2.10;;
75009;SDS011;63564;46.840;18.336;2023-07-31T14:27:55;7.33;;;2.37;;
75009;SDS011;63564;46.840;18.336;2023-07-31T14:30:55;6.50;;;2.30;;
75009;SDS011;63564;46.840;18.336;2023-07-31T14:33:56;6.23;;;2.63;;
75009;SDS011;63564;46.840;18.336;2023-07-31T14:36:56;6.83;;;2.37;;
75009;SDS011;63564;46.840;18.336;2023-07-31T14:39:57;6.28;;;2.33;;
75009;SDS011;63564;46.840;18.336;2023-07-31T14:42:57;5.20;;;2.10;;
75009;SDS011;63564;46.840;18.336;2023-07-31T14:45:58;5.40;;;1.90;;
75009;SDS011;63564;46.840;18.336;2023-07-31T14:48:59;6.03;;;1.92;;
75009;SDS011;63564;46.840;18.336;2023-07-31T14:52:00;3.80;;;1.70;;
75009;SDS011;63564;46.840;18.336;2023-07-31T14:55:00;4.93;;;1.83;;
75009;SDS011;63564;46.840;18.336;2023-07-31T14:58:01;4.75;;;1.80;;
75009;SDS011;63564;46.840;18.336;2023-07-31T15:01:01;4.93;;;1.90;;
75009;SDS011;63564;46.840;18.336;2023-07-31T15:04:02;5.87;;;2.00;;
75009;SDS011;63564;46.840;18.336;2023-07-31T15:07:02;5.75;;;2.15;;
75009;SDS011;63564;46.840;18.336;2023-07-31T15:10:03;4.30;;;1.97;;
75009;SDS011;63564;46.840;18.336;2023-07-31T15:13:05;4.18;;;1.80;;
75009;SDS011;63564;46.840;18.336;2023-07-31T15:16:05;5.37;;;2.20;;
75009;SDS011;63564;46.840;18.336;2023-07-31T15:19:06;4.60;;;1.70;;
75009;SDS011;63564;46.840;18.336;2023-07-31T15:22:06;6.30;;;2.00;;
75009;SDS011;63564;46.840;18.336;2023-07-31T15:25:07;4.20;;;2.00;;
75009;SDS011;63564;46.840;18.336;2023-07-31T15:28:08;5.10;;;1.90;;
75009;SDS011;63564;46.840;18.336;2023-07-31T15:31:09;6.18;;;1.95;;
75009;SDS011;63564;46.840;18.336;2023-07-31T15:34:09;6.10;;;1.83;;
75009;SDS011;63564;46.840;18.336;2023-07-31T15:37:09;5.47;;;2.20;;
75009;SDS011;63564;46.840;18.336;2023-07-31T15:40:10;5.33;;;2.20;;
75009;SDS011;63564;46.840;18.336;2023-07-31T15:43:11;4.20;;;1.87;;
75009;SDS011;63564;46.840;18.336;2023-07-31T15:46:11;4.75;;;1.90;;
75009;SDS011;63564;46.840;18.336;2023-07-31T15:49:12;6.70;;;2.20;;
75009;SDS011;63564;46.840;18.336;2023-07-31T15:52:13;4.70;;;2.15;;
75009;SDS011;63564;46.840;18.336;2023-07-31T15:55:13;7.97;;;2.37;;
75009;SDS011;63564;46.840;18.336;2023-07-31T15:58:14;6.30;;;2.10;;
75009;SDS011;63564;46.840;18.336;2023-07-31T16:01:14;5.30;;;2.30;;
75009;SDS011;63564;46.840;18.336;2023-07-31T16:04:15;5.53;;;2.10;;
75009;SDS011;63564;46.840;18.336;2023-07-31T16:07:15;4.90;;;2.00;;
75009;SDS011;63564;46.840;18.336;2023-07-31T16:10:15;6.40;;;2.33;;
75009;SDS011;63564;46.840;18.336;2023-07-31T16:13:16;4.90;;;2.30;;
75009;SDS011;63564;46.840;18.336;2023-07-31T16:16:16;5.77;;;2.50;;
75009;SDS011;63564;46.840;18.336;2023-07-31T16:19:16;6.43;;;2.13;;
75009;SDS011;63564;46.840;18.336;2023-07-31T16:22:17;6.20;;;2.37;;
75009;SDS011;63564;46.840;18.336;2023-07-31T16:25:17;7.67;;;2.30;;
75009;SDS011;63564;46.840;18.336;2023-07-31T16:28:18;8.57;;;2.10;;
75009;SDS011;63564;46.840;18.336;2023-07-31T16:31:19;5.23;;;2.40;;
75009;SDS011;63564;46.840;18.336;2023-07-31T16:34:19;8.27;;;2.33;;
75009;SDS011;63564;46.840;18.336;2023-07-31T16:37:20;5.70;;;2.10;;
75009;SDS011;63564;46.840;18.336;2023-07-31T16:40:21;5.37;;;2.13;;
75009;SDS011;63564;46.840;18.336;2023-07-31T16:43:21;5.57;;;2.13;;
75009;SDS011;63564;46.840;18.336;2023-07-31T16:46:21;5.40;;;2.07;;
75009;SDS011;63564;46.840;18.336;2023-07-31T16:49:22;5.37;;;2.10;;
75009;SDS011;63564;46.840;18.336;2023-07-31T16:52:22;5.53;;;2.20;;
75009;SDS011;63564;46.840;18.336;2023-07-31T16:55:22;7.10;;;2.10;;
75009;SDS011;63564;46.840;18.336;2023-07-31T16:58:23;5.13;;;2.20;;
75009;SDS011;63564;46.840;18.336;2023-07-31T17:01:23;5.93;;;2.10;;
75009;SDS011;63564;46.840;18.336;2023-07-31T17:04:30;5.55;;;1.90;;
75009;SDS011;63564;46.840;18.336;2023-07-31T17:07:31;6.13;;;2.13;;
75009;SDS011;63564;46.840;18.336;2023-07-31T17:10:31;4.68;;;2.00;;
75009;SDS011;63564;46.840;18.336;2023-07-31T17:13:32;5.63;;;2.07;;
75009;SDS011;63564;46.840;18.336;2023-07-31T17:16:33;5.67;;;1.87;;
75009;SDS011;63564;46.840;18.336;2023-07-31T17:19:34;5.83;;;2.20;;
75009;SDS011;63564;46.840;18.336;2023-07-31T17:22:35;4.77;;;2.00;;
75009;SDS011;63564;46.840;18.336;2023-07-31T17:25:37;6.70;;;2.20;;
75009;SDS011;63564;46.840;18.336;2023-07-31T17:28:41;5.57;;;2.10;;
75009;SDS011;63564;46.840;18.336;2023-07-31T17:31:42;6.20;;;2.30;;
75009;SDS011;63564;46.840;18.336;2023-07-31T17:34:43;6.80;;;2.47;;
75009;SDS011;63564;46.840;18.336;2023-07-31T17:37:44;5.13;;;2.30;;
75009;SDS011;63564;46.840;18.336;2023-07-31T17:40:44;6.80;;;2.00;;
75009;SDS011;63564;46.840;18.336;2023-07-31T17:43:45;4.77;;;2.07;;
75009;SDS011;63564;46.840;18.336;2023-07-31T17:46:45;4.50;;;1.95;;
75009;SDS011;63564;46.840;18.336;2023-07-31T17:49:49;5.20;;;2.17;;
75009;SDS011;63564;46.840;18.336;2023-07-31T17:52:50;5.53;;;2.10;;
75009;SDS011;63564;46.840;18.336;2023-07-31T17:55:50;5.88;;;2.20;;
75009;SDS011;63564;46.840;18.336;2023-07-31T17:58:51;6.23;;;2.40;;
75009;SDS011;63564;46.840;18.336;2023-07-31T18:01:52;4.63;;;2.23;;
75009;SDS011;63564;46.840;18.336;2023-07-31T18:04:52;6.50;;;2.50;;
75009;SDS011;63564;46.840;18.336;2023-07-31T18:07:53;6.27;;;2.30;;
75009;SDS011;63564;46.840;18.336;2023-07-31T18:10:54;4.63;;;2.22;;